Time;durP1;ratioP1;P1;durP2;ratioP2;P2;SDS_P1;SDS_P2;PMS_P1;PMS_P2;Temp;Humidity;BMP_temperature;BMP_pressure;BME280_temperature;BME280_humidity;BME280_pressure;Samples;Min_cycle;Max_cycle;Signal;HPM_P1;HPM_P2
2022/03/14 00:00:01;;;;;;;21.05;14.20;;;;;;;7.97;43.89;100061.34;10309663;28;20165;-75
2022/03/14 00:05:05;;;;;;;21.80;14.30;;;;;;;8.07;43.39;100066.97;10308434;28;20166;-75
2022/03/14 00:10:08;;;;;;;22.75;14.63;;;;;;;8.21;44.04;100067.19;10292570;28;20153;-74
2022/03/14 00:15:11;;;;;;;24.52;14.32;;;;;;;8.25;43.95;100073.94;10309270;28;20180;-74
2022/03/14 00:20:15;;;;;;;25.27;14.70;;;;;;;8.31;43.68;100071.03;10304740;28;20053;-75
2022/03/14 00:25:16;;;;;;;19.60;13.90;;;;;;;8.24;44.31;100100.94;10306473;28;21080;-75
2022/03/14 00:30:18;;;;;;;21.33;14.63;;;;;;;8.09;44.31;100105.06;10305813;28;20945;-75
2022/03/14 00:35:21;;;;;;;20.48;14.40;;;;;;;8.10;43.38;100091.13;10307275;28;20046;-75
2022/03/14 00:40:22;;;;;;;21.67;14.32;;;;;;;8.23;42.22;100080.97;10306262;28;20141;-75
2022/03/14 00:45:27;;;;;;;20.15;14.00;;;;;;;7.86;44.26;100068.81;10307109;28;20050;-75
2022/03/14 00:50:29;;;;;;;19.15;14.63;;;;;;;7.90;44.60;100073.81;10306089;28;20054;-75
2022/03/14 00:55:31;;;;;;;19.38;13.98;;;;;;;7.95;44.87;100069.25;10307363;28;20060;-75
2022/03/14 01:00:33;;;;;;;19.48;13.30;;;;;;;7.93;45.12;100091.91;10305602;28;20453;-75
2022/03/14 01:05:35;;;;;;;25.38;14.25;;;;;;;8.02;44.97;100096.69;10306049;28;20090;-75
2022/03/14 01:10:37;;;;;;;21.05;14.70;;;;;;;8.00;46.11;100150.59;10305895;28;20141;-75
2022/03/14 01:15:39;;;;;;;19.27;13.98;;;;;;;7.66;47.16;100160.84;10306671;28;20094;-75
2022/03/14 01:20:41;;;;;;;21.25;14.60;;;;;;;7.54;47.69;100178.75;10287428;28;20050;-75
2022/03/14 01:25:45;;;;;;;20.48;14.73;;;;;;;7.47;47.09;100187.75;10287945;28;20502;-75
2022/03/14 01:30:47;;;;;;;22.95;13.90;;;;;;;7.58;47.14;100193.31;10288203;28;20216;-75
2022/03/14 01:35:49;;;;;;;19.13;12.98;;;;;;;7.72;46.77;100190.97;10287026;28;20136;-75
2022/03/14 01:40:51;;;;;;;21.80;12.45;;;;;;;7.81;46.95;100204.41;10304751;28;20046;-75
2022/03/14 01:45:57;;;;;;;17.48;12.68;;;;;;;7.81;47.81;100217.44;10304274;28;20057;-75
2022/03/14 01:50:59;;;;;;;17.25;12.40;;;;;;;7.83;48.42;100215.59;10304235;28;20431;-75
2022/03/14 01:56:00;;;;;;;16.33;11.73;;;;;;;7.90;49.26;100219.63;10285357;28;20778;-75
2022/03/14 02:01:02;;;;;;;15.15;10.73;;;;;;;7.97;49.73;100223.69;10300741;28;20050;-75
2022/03/14 02:06:04;;;;;;;14.18;10.80;;;;;;;7.90;50.46;100224.84;10304533;28;20144;-74
2022/03/14 02:11:06;;;;;;;14.48;10.85;;;;;;;7.92;50.94;100236.03;10304114;28;20066;-74
2022/03/14 02:16:08;;;;;;;19.15;10.73;;;;;;;7.89;51.55;100235.34;10303681;28;20614;-74
2022/03/14 02:21:11;;;;;;;14.35;9.95;;;;;;;7.93;52.11;100237.75;10304216;28;20054;-74
2022/03/14 02:26:13;;;;;;;13.60;9.68;;;;;;;8.03;53.08;100254.66;10285423;28;20086;-75
2022/03/14 02:31:15;;;;;;;13.77;10.50;;;;;;;8.11;53.82;100256.09;10304011;28;20050;-74
2022/03/14 02:36:17;;;;;;;17.58;10.70;;;;;;;8.10;55.04;100264.81;10303178;28;20227;-74
2022/03/14 02:41:21;;;;;;;14.05;10.60;;;;;;;8.03;56.32;100267.69;10285750;28;20076;-75
2022/03/14 02:46:23;;;;;;;16.63;11.40;;;;;;;8.00;57.57;100283.44;10306920;28;20064;-74
2022/03/14 02:51:25;;;;;;;16.35;11.60;;;;;;;8.00;58.25;100301.66;10311625;28;20468;-75
2022/03/14 02:56:26;;;;;;;18.17;12.48;;;;;;;8.04;58.66;100308.44;10293273;28;20526;-75
2022/03/14 03:01:28;;;;;;;18.23;13.05;;;;;;;8.09;59.51;100317.81;10312159;28;20077;-75
2022/03/14 03:06:33;;;;;;;17.00;12.18;;;;;;;8.07;60.07;100324.84;10318867;28;20054;-74
2022/03/14 03:11:34;;;;;;;19.33;12.65;;;;;;;8.12;60.24;100334.16;10318763;28;20050;-74
2022/03/14 03:16:37;;;;;;;20.50;13.00;;;;;;;8.30;60.26;100342.97;10318668;28;20133;-75
2022/03/14 03:21:39;;;;;;;21.55;14.45;;;;;;;8.38;60.59;100341.72;10318661;28;20050;-75
2022/03/14 03:26:41;;;;;;;21.58;14.55;;;;;;;8.40;60.75;100347.72;10318126;28;20069;-75
2022/03/14 03:31:43;;;;;;;21.10;14.82;;;;;;;8.25;61.38;100365.75;10319261;28;20057;-75
2022/03/14 03:36:44;;;;;;;35.85;20.10;;;;;;;8.14;61.67;100370.59;10300353;28;20068;-75
2022/03/14 03:41:46;;;;;;;21.65;15.45;;;;;;;7.95;62.21;100381.75;10300722;28;20177;-75
2022/03/14 03:46:48;;;;;;;29.00;19.38;;;;;;;7.97;62.24;100382.56;10318506;28;20058;-75
2022/03/14 03:51:50;;;;;;;19.83;14.60;;;;;;;8.00;62.28;100398.03;10300337;28;20101;-75
2022/03/14 03:56:51;;;;;;;41.50;23.20;;;;;;;8.11;62.23;100401.97;10317331;28;20160;-74
2022/03/14 04:01:53;;;;;;;37.35;22.77;;;;;;;8.13;62.46;100405.38;10317114;28;20468;-75
2022/03/14 04:06:57;;;;;;;26.30;18.00;;;;;;;8.20;62.45;100409.41;10311901;28;20112;-75
2022/03/14 04:11:59;;;;;;;36.03;23.92;;;;;;;8.12;61.95;100412.31;10309065;28;20054;-75
2022/03/14 04:17:04;;;;;;;44.05;25.75;;;;;;;8.00;62.00;100429.28;10293122;28;20046;-75
2022/03/14 04:22:13;;;;;;;35.85;23.45;;;;;;;7.91;62.31;100432.28;10310079;28;20137;-75
2022/03/14 04:27:14;;;;;;;29.75;20.35;;;;;;;7.88;62.88;100434.16;10291547;28;20050;-75
2022/03/14 04:32:16;;;;;;;34.30;21.77;;;;;;;7.89;62.95;100431.50;10302151;28;20054;-75
2022/03/14 04:37:18;;;;;;;40.35;22.98;;;;;;;7.97;63.23;100428.56;10308945;28;20046;-75
2022/03/14 04:42:21;;;;;;;38.13;22.23;;;;;;;7.98;63.34;100441.53;10306853;28;20910;-75
2022/03/14 04:47:23;;;;;;;38.88;21.38;;;;;;;8.02;63.48;100443.09;10309020;28;20096;-75
2022/03/14 04:52:28;;;;;;;35.30;21.20;;;;;;;7.97;63.72;100452.00;10308372;28;20046;-75
2022/03/14 04:57:29;;;;;;;33.20;21.42;;;;;;;7.97;63.57;100455.47;10306665;28;20133;-75
2022/03/14 05:02:31;;;;;;;34.72;23.30;;;;;;;7.94;63.43;100467.75;10290936;28;20068;-75
2022/03/14 05:07:33;;;;;;;37.33;23.15;;;;;;;7.98;63.54;100480.59;10307067;28;20048;-75
2022/03/14 05:12:34;;;;;;;36.20;23.20;;;;;;;7.94;63.70;100486.84;10307768;28;20153;-75
2022/03/14 05:17:36;;;;;;;62.80;28.98;;;;;;;7.92;63.55;100493.00;10290264;28;20051;-75
2022/03/14 05:22:45;;;;;;;43.13;24.58;;;;;;;7.82;64.18;100489.06;10307123;28;20043;-74
2022/03/14 05:27:47;;;;;;;15.65;12.10;;;;;;;7.92;64.08;100493.88;10304952;28;20064;-75
2022/03/14 05:32:49;;;;;;;13.25;10.00;;;;;;;8.03;64.09;100486.47;10290545;28;20082;-75
2022/03/14 05:37:51;;;;;;;12.73;9.43;;;;;;;8.04;64.20;100495.97;10289491;28;20196;-75
2022/03/14 05:42:53;;;;;;;14.63;10.25;;;;;;;8.00;64.22;100515.25;10289108;28;20058;-75
2022/03/14 05:47:55;;;;;;;12.38;9.20;;;;;;;7.85;64.48;100522.81;10288379;28;20074;-75
2022/03/14 05:52:56;;;;;;;11.07;7.97;;;;;;;7.71;64.80;100531.16;10306396;28;20080;-75
2022/03/14 05:57:58;;;;;;;7.55;6.00;;;;;;;7.63;64.90;100537.59;10305790;28;20485;-75
2022/03/14 06:03:00;;;;;;;8.07;5.30;;;;;;;7.57;64.84;100543.03;10306592;28;20104;-75
2022/03/14 06:08:02;;;;;;;7.40;5.35;;;;;;;7.53;64.85;100550.06;10305935;28;20132;-75
2022/03/14 06:13:04;;;;;;;6.65;4.97;;;;;;;7.46;65.17;100565.97;10304573;28;20054;-75
2022/03/14 06:18:05;;;;;;;5.35;4.03;;;;;;;7.50;64.92;100563.22;10287799;28;20473;-75
2022/03/14 06:23:07;;;;;;;8.13;3.88;;;;;;;7.37;65.52;100582.78;10304757;28;20054;-75
2022/03/14 06:28:09;;;;;;;4.47;3.30;;;;;;;7.29;65.69;100581.34;10305241;28;20133;-75
2022/03/14 06:33:11;;;;;;;4.82;3.20;;;;;;;7.32;65.72;100589.06;10305487;28;20054;-75
2022/03/14 06:38:12;;;;;;;7.35;3.35;;;;;;;7.33;65.71;100606.34;10305210;28;20146;-75
2022/03/14 06:43:15;;;;;;;8.60;3.45;;;;;;;7.42;65.68;100604.28;10305657;28;20121;-75
2022/03/14 06:48:18;;;;;;;4.82;3.10;;;;;;;7.53;65.43;100607.34;10287636;28;20050;-75
2022/03/14 06:53:19;;;;;;;6.50;2.97;;;;;;;7.51;65.55;100622.16;10305115;28;20046;-75
2022/03/14 06:58:22;;;;;;;6.03;3.22;;;;;;;7.66;65.21;100625.97;10287140;28;20485;-75
2022/03/14 07:03:24;;;;;;;6.20;3.63;;;;;;;7.70;65.09;100636.22;10304955;28;20741;-75
2022/03/14 07:08:26;;;;;;;5.53;3.30;;;;;;;7.77;65.16;100649.84;10287877;28;20050;-75
2022/03/14 07:13:28;;;;;;;6.20;2.80;;;;;;;7.81;65.01;100665.28;10286739;28;20151;-75
2022/03/14 07:18:30;;;;;;;7.30;3.05;;;;;;;8.03;64.55;100667.97;10305084;28;20180;-76
2022/03/14 07:23:32;;;;;;;4.95;2.97;;;;;;;8.13;64.07;100663.28;10304881;28;20054;-75
2022/03/14 07:28:34;;;;;;;7.22;3.08;;;;;;;8.40;63.56;100667.44;10305106;28;20046;-75
2022/03/14 07:33:35;;;;;;;5.93;2.83;;;;;;;8.44;63.39;100679.44;10309236;28;20054;-75
2022/03/14 07:38:37;;;;;;;6.90;3.00;;;;;;;8.70;62.84;100677.50;10294495;28;20133;-75
2022/03/14 07:43:40;;;;;;;8.20;3.10;;;;;;;8.89;62.34;100688.03;10311440;28;20408;-75
2022/03/14 07:48:42;;;;;;;8.13;3.10;;;;;;;9.08;61.85;100702.00;10310855;28;20139;-75
2022/03/14 07:53:44;;;;;;;8.07;2.85;;;;;;;9.09;61.55;100705.47;10311707;28;20144;-75
2022/03/14 07:58:46;;;;;;;8.05;2.88;;;;;;;9.06;61.45;100710.81;10310211;28;20262;-75
2022/03/14 08:03:47;;;;;;;9.27;2.88;;;;;;;9.14;61.31;100714.81;10310998;28;20137;-75
2022/03/14 08:08:50;;;;;;;7.75;3.15;;;;;;;9.15;60.82;100710.44;10293778;28;20148;-75
2022/03/14 08:13:52;;;;;;;7.68;3.45;;;;;;;9.13;60.81;100734.00;10310133;28;20057;-75
2022/03/14 08:18:53;;;;;;;6.57;2.60;;;;;;;8.92;61.20;100744.44;10309399;28;20046;-75
2022/03/14 08:23:55;;;;;;;7.50;2.35;;;;;;;8.86;61.00;100745.53;10309688;28;20088;-74
2022/03/14 08:28:57;;;;;;;6.47;2.58;;;;;;;9.06;60.53;100749.94;10307892;28;20054;-74
2022/03/14 08:34:04;;;;;;;8.07;2.67;;;;;;;9.26;60.05;100756.03;10307804;28;20455;-74
2022/03/14 08:39:09;;;;;;;10.23;3.00;;;;;;;9.51;59.71;100763.72;10309139;28;20098;-74
2022/03/14 08:44:13;;;;;;;8.20;2.80;;;;;;;9.46;59.09;100763.91;10307343;28;20062;-74
2022/03/14 08:49:14;;;;;;;5.93;2.53;;;;;;;9.49;58.77;100768.16;10309314;28;20137;-74
2022/03/14 08:54:16;;;;;;;7.32;2.45;;;;;;;9.46;58.67;100776.13;10308687;28;20145;-74
2022/03/14 08:59:18;;;;;;;8.52;2.40;;;;;;;9.62;57.99;100782.41;10308017;28;20161;-74
2022/03/14 09:04:19;;;;;;;6.63;2.50;;;;;;;9.86;57.65;100798.81;10308264;28;20496;-74
2022/03/14 09:09:22;;;;;;;6.13;2.20;;;;;;;9.95;57.16;100799.25;10308541;28;20050;-74
2022/03/14 09:14:24;;;;;;;8.45;2.53;;;;;;;9.77;57.00;100805.28;10306232;28;20128;-74
2022/03/14 09:19:27;;;;;;;8.25;2.38;;;;;;;9.79;56.94;100808.66;10307945;28;20054;-74
2022/03/14 09:24:29;;;;;;;5.30;2.10;;;;;;;10.14;56.15;100826.28;10307584;28;20090;-74
2022/03/14 09:29:31;;;;;;;6.93;2.10;;;;;;;10.23;56.04;100825.06;10305406;28;20050;-74
2022/03/14 09:34:37;;;;;;;5.25;1.88;;;;;;;10.31;55.16;100839.50;10307167;28;20153;-74
2022/03/14 09:39:39;;;;;;;5.57;2.15;;;;;;;10.18;55.56;100842.69;10306750;28;20507;-74
2022/03/14 09:44:42;;;;;;;5.03;1.90;;;;;;;10.36;54.99;100845.34;10306274;28;20064;-74
2022/03/14 09:49:45;;;;;;;7.88;2.20;;;;;;;10.71;54.06;100853.38;10300794;28;20493;-74
2022/03/14 09:54:48;;;;;;;5.82;2.13;;;;;;;11.16;52.32;100852.13;10305878;28;20140;-74
2022/03/14 09:59:51;;;;;;;5.90;2.33;;;;;;;10.88;52.93;100862.16;10303669;28;20054;-74
2022/03/14 10:04:52;;;;;;;5.57;2.22;;;;;;;11.09;52.26;100857.72;10305130;28;20390;-74
2022/03/14 10:09:56;;;;;;;6.00;2.20;;;;;;;11.01;51.83;100873.75;10305902;28;20477;-74
2022/03/14 10:15:02;;;;;;;5.80;2.13;;;;;;;10.96;51.89;100877.50;10305683;28;20133;-74
2022/03/14 10:20:06;;;;;;;7.47;2.10;;;;;;;11.41;51.28;100877.13;10305597;28;20050;-74
2022/03/14 10:25:14;;;;;;;5.85;2.00;;;;;;;11.63;50.19;100886.50;10305617;28;20061;-74
2022/03/14 10:30:24;;;;;;;6.07;1.90;;;;;;;12.08;49.14;100885.97;10304671;28;20274;-74
2022/03/14 10:35:31;;;;;;;;;;;;;;;11.59;50.13;100886.72;10297561;28;20662;-74
2022/03/14 10:40:44;;;;;;;5.72;2.08;;;;;;;11.51;49.78;100894.09;10288552;28;20008;-74
2022/03/14 10:45:46;;;;;;;4.18;1.80;;;;;;;11.34;50.51;100900.13;10305739;28;20105;-74
2022/03/14 10:50:48;;;;;;;9.80;2.10;;;;;;;11.50;50.10;100902.91;10286086;28;20086;-74
2022/03/14 10:55:58;;;;;;;6.47;1.75;;;;;;;11.54;50.03;100905.28;10305126;28;20128;-74
2022/03/14 11:01:11;;;;;;;4.53;1.80;;;;;;;11.59;49.93;100915.53;10287216;28;20443;-74
2022/03/14 11:06:16;;;;;;;3.20;1.52;;;;;;;11.48;49.08;100912.59;10288369;28;20065;-74
2022/03/14 11:11:22;;;;;;;3.63;1.45;;;;;;;11.23;49.09;100932.06;10282539;28;20138;-74
2022/03/14 11:16:30;;;;;;;2.55;1.25;;;;;;;11.44;48.60;100929.38;10312033;28;20062;-74
2022/03/14 11:21:32;;;;;;;2.97;1.30;;;;;;;11.77;46.60;100922.50;10311971;28;20060;-76
2022/03/14 11:26:36;;;;;;;2.67;1.27;;;;;;;12.03;46.25;100930.78;10311091;28;20057;-77
2022/03/14 11:31:38;;;;;;;2.55;1.20;;;;;;;12.73;45.80;100930.69;10307956;28;20129;-76
2022/03/14 11:36:41;;;;;;;1.48;0.93;;;;;;;12.55;44.27;100931.63;10274837;28;20057;-77
2022/03/14 11:41:43;;;;;;;2.92;1.23;;;;;;;12.44;44.74;100926.09;10307501;28;20060;-77
2022/03/14 11:46:46;;;;;;;3.10;1.10;;;;;;;12.63;44.21;100934.72;10290689;28;20058;-78
2022/03/14 11:51:48;;;;;;;4.20;1.50;;;;;;;12.77;44.45;100936.59;10311303;28;20046;-77
2022/03/14 11:56:57;;;;;;;4.20;1.90;;;;;;;12.64;44.42;100939.00;10304348;28;20054;-78
2022/03/14 12:02:02;;;;;;;3.38;1.63;;;;;;;12.54;45.04;100942.19;10288598;28;20058;-79
2022/03/14 12:07:06;;;;;;;4.55;1.40;;;;;;;12.69;44.80;100936.16;10283104;28;20140;-78
2022/03/14 12:12:15;;;;;;;4.88;1.38;;;;;;;12.25;44.27;100940.19;10286254;28;20153;-78
2022/03/14 12:17:16;;;;;;;4.20;1.30;;;;;;;12.57;44.99;100934.19;10289422;28;20413;-78
2022/03/14 12:22:30;;;;;;;3.25;1.50;;;;;;;12.21;44.76;100939.50;10290491;28;20165;-78
2022/03/14 12:27:40;;;;;;;4.45;1.48;;;;;;;11.93;44.72;100937.41;10304942;28;20389;-78
2022/03/14 12:32:45;;;;;;;2.90;1.30;;;;;;;12.25;44.83;100937.56;10305937;28;20424;-78
2022/03/14 12:37:56;;;;;;;3.95;1.73;;;;;;;12.09;44.82;100943.59;10287517;28;20592;-78
2022/03/14 12:43:07;;;;;;;2.33;1.30;;;;;;;12.50;44.76;100928.41;10307332;28;20070;-78
2022/03/14 12:48:16;;;;;;;5.43;1.63;;;;;;;12.84;43.85;100924.88;10306138;28;20053;-78
2022/03/14 12:53:27;;;;;;;4.75;1.58;;;;;;;13.03;42.63;100929.97;10307486;28;20046;-78
2022/03/14 12:58:33;;;;;;;4.95;1.75;;;;;;;12.98;43.49;100923.16;10245383;28;1158543;-78
2022/03/14 13:03:36;;;;;;;3.83;1.50;;;;;;;13.36;42.63;100915.84;10291051;28;20108;-78
2022/03/14 13:08:58;;;;;;;6.03;1.90;;;;;;;13.10;43.17;100919.06;10290543;28;20050;-78
2022/03/14 13:14:07;;;;;;;4.70;1.83;;;;;;;13.31;42.70;100909.97;10308079;28;20518;-78
2022/03/14 13:19:15;;;;;;;6.83;1.87;;;;;;;12.98;43.43;100917.09;10306592;28;20069;-78
2022/03/14 13:24:19;;;;;;;4.35;1.40;;;;;;;12.76;43.74;100909.50;10289966;28;20477;-78
2022/03/14 13:29:21;;;;;;;4.53;1.55;;;;;;;12.39;44.11;100920.25;10307954;28;20062;-78
2022/03/14 13:34:26;;;;;;;3.55;1.50;;;;;;;12.01;44.94;100939.63;10307463;28;20050;-79
2022/03/14 13:39:28;;;;;;;5.30;1.60;;;;;;;12.15;44.62;100945.03;10306058;28;20124;-78
2022/03/14 13:44:30;;;;;;;3.63;1.55;;;;;;;12.32;44.61;100957.34;10295739;28;20078;-78
2022/03/14 13:49:32;;;;;;;3.80;1.58;;;;;;;12.64;44.14;100960.00;10307592;28;20053;-79
2022/03/14 13:54:43;;;;;;;5.88;1.65;;;;;;;12.89;43.72;100959.56;10306011;28;20156;-79
2022/03/14 13:59:47;;;;;;;4.78;1.50;;;;;;;12.82;43.78;100953.78;10288832;28;20050;-79
2022/03/14 14:05:12;;;;;;;6.13;1.77;;;;;;;12.97;43.01;100954.75;10305678;28;20133;-78
2022/03/14 14:10:14;;;;;;;3.17;1.30;;;;;;;13.07;42.59;100957.78;10305320;28;20057;-78
2022/03/14 14:15:16;;;;;;;4.38;1.50;;;;;;;13.18;41.84;100953.63;10305290;28;20061;-78
2022/03/14 14:20:31;;;;;;;4.43;1.58;;;;;;;13.22;41.60;100951.66;10282295;28;20794;-78
2022/03/14 14:25:35;;;;;;;4.68;1.30;;;;;;;13.14;42.00;100962.59;10304668;28;20733;-77
2022/03/14 14:30:43;;;;;;;6.35;1.58;;;;;;;13.22;41.40;100962.19;10301631;28;20662;-78
2022/03/14 14:35:50;;;;;;;4.03;1.40;;;;;;;13.45;40.92;100967.91;10299975;28;20503;-78
2022/03/14 14:40:53;;;;;;;3.17;1.40;;;;;;;13.31;40.95;100966.94;10304541;28;20050;-78
2022/03/14 14:45:56;;;;;;;3.80;1.60;;;;;;;13.63;40.48;100943.25;10313285;28;20144;-77
2022/03/14 14:50:58;;;;;;;3.88;1.48;;;;;;;14.18;39.55;100940.91;10304859;28;20377;-77
2022/03/14 14:56:00;;;;;;;5.93;1.60;;;;;;;14.25;39.56;100933.47;10306134;28;20053;-77
2022/03/14 15:01:02;;;;;;;5.22;1.88;;;;;;;14.13;39.45;100929.78;10302808;28;20124;-77
2022/03/14 15:06:04;;;;;;;5.55;1.92;;;;;;;14.03;39.48;100939.16;10287687;28;20530;-77
2022/03/14 15:11:06;;;;;;;6.10;1.60;;;;;;;13.72;39.85;100942.69;10275178;28;20784;-76
2022/03/14 15:16:07;;;;;;;6.50;1.60;;;;;;;13.56;40.09;100933.13;10297355;28;20116;-76
2022/03/14 15:21:10;;;;;;;3.90;1.50;;;;;;;13.32;40.57;100934.47;10269307;28;20050;-76
2022/03/14 15:26:12;;;;;;;3.83;1.38;;;;;;;13.01;40.97;100942.31;10287802;28;20149;-76
2022/03/14 15:31:14;;;;;;;3.50;1.40;;;;;;;13.12;40.84;100932.09;10281179;28;20050;-76
2022/03/14 15:36:15;;;;;;;5.97;1.75;;;;;;;13.07;41.10;100939.38;10298218;28;20057;-76
2022/03/14 15:41:17;;;;;;;6.93;1.67;;;;;;;12.79;41.31;100948.72;10253132;28;20053;-76
2022/03/14 15:46:21;;;;;;;6.30;1.58;;;;;;;13.05;41.74;100960.44;10288992;28;20718;-77
2022/03/14 15:51:23;;;;;;;5.15;1.50;;;;;;;12.98;41.09;100952.06;10276165;28;20051;-77
2022/03/14 15:56:25;;;;;;;3.58;1.40;;;;;;;13.09;41.32;100967.25;10283699;28;20113;-77
2022/03/14 16:01:27;;;;;;;4.78;1.60;;;;;;;13.11;41.45;100965.38;10263228;28;20093;-76
2022/03/14 16:06:29;;;;;;;5.47;1.58;;;;;;;12.96;41.10;100976.72;10252372;28;20078;-76
2022/03/14 16:11:31;;;;;;;4.10;1.38;;;;;;;13.02;40.96;100976.41;10273684;28;20472;-77
2022/03/14 16:16:34;;;;;;;5.53;1.70;;;;;;;13.15;40.50;100989.72;10267550;28;20192;-76
2022/03/14 16:21:36;;;;;;;4.75;1.45;;;;;;;12.77;40.96;101000.47;10280943;28;20838;-76
2022/03/14 16:26:38;;;;;;;6.40;1.70;;;;;;;12.67;41.56;101004.47;10277685;28;20060;-76
2022/03/14 16:31:40;;;;;;;4.68;1.60;;;;;;;12.55;41.61;101002.50;10271584;28;20154;-76
2022/03/14 16:36:42;;;;;;;5.25;1.60;;;;;;;12.71;41.59;101010.41;10281336;28;20508;-76
2022/03/14 16:41:44;;;;;;;5.30;1.50;;;;;;;12.64;41.77;101015.13;10265059;28;20150;-76
2022/03/14 16:46:49;;;;;;;7.53;1.70;;;;;;;12.57;41.93;101008.50;10278573;28;20086;-76
2022/03/14 16:51:51;;;;;;;5.55;1.75;;;;;;;12.33;42.30;101012.38;10268958;28;20054;-76
2022/03/14 16:56:53;;;;;;;5.65;1.60;;;;;;;12.20;43.23;101026.97;10278044;28;20137;-76
2022/03/14 17:01:55;;;;;;;6.82;1.67;;;;;;;11.92;43.64;101022.22;10270267;28;20506;-76
2022/03/14 17:06:57;;;;;;;4.65;1.55;;;;;;;11.65;44.01;101027.91;10274521;28;20087;-76
2022/03/14 17:11:59;;;;;;;6.80;2.30;;;;;;;11.34;44.55;101032.88;10286857;28;20046;-77
2022/03/14 17:17:04;;;;;;;6.53;2.10;;;;;;;11.03;45.57;101039.44;10289162;28;20042;-77
2022/03/14 17:22:08;;;;;;;7.78;2.55;;;;;;;10.80;46.15;101036.13;10272017;28;20042;-76
2022/03/14 17:27:10;;;;;;;5.90;2.40;;;;;;;10.57;46.25;101021.41;10281980;28;20125;-77
2022/03/14 17:32:14;;;;;;;8.10;1.85;;;;;;;10.46;46.16;101031.50;10275809;28;20615;-76
2022/03/14 17:37:15;;;;;;;6.13;2.33;;;;;;;10.22;46.11;101029.88;10286200;28;20046;-76
2022/03/14 17:42:17;;;;;;;6.13;2.38;;;;;;;9.97;47.53;101043.06;10283007;28;20073;-77
2022/03/14 17:47:19;;;;;;;9.52;3.30;;;;;;;9.75;48.57;101051.81;10275799;28;20138;-77
2022/03/14 17:52:22;;;;;;;6.38;2.90;;;;;;;9.55;49.08;101055.16;10285524;28;20677;-76
2022/03/14 17:57:23;;;;;;;7.05;2.50;;;;;;;9.42;48.87;101059.97;10278887;28;20141;-74
2022/03/14 18:02:28;;;;;;;5.15;1.90;;;;;;;9.28;49.90;101074.47;10295728;28;20183;-74
2022/03/14 18:07:31;;;;;;;8.38;3.10;;;;;;;9.07;50.70;101093.50;10302328;28;20120;-74
2022/03/14 18:12:34;;;;;;;10.23;3.92;;;;;;;8.82;51.49;101090.88;10296151;28;20137;-74
2022/03/14 18:17:35;;;;;;;8.40;3.33;;;;;;;8.68;52.00;101100.91;10302322;28;20617;-74
2022/03/14 18:22:38;;;;;;;10.15;3.00;;;;;;;8.60;52.25;101097.72;10301442;28;20054;-74
2022/03/14 18:27:40;;;;;;;8.88;2.85;;;;;;;8.45;52.42;101095.59;10304440;28;20054;-74
2022/03/14 18:32:41;;;;;;;7.75;2.83;;;;;;;8.31;53.09;101103.88;10303110;28;20161;-74
2022/03/14 18:37:43;;;;;;;9.68;3.08;;;;;;;8.19;53.35;101099.06;10304460;28;20085;-74
2022/03/14 18:42:45;;;;;;;10.40;5.68;;;;;;;8.08;53.72;101100.25;10285719;28;20060;-74
2022/03/14 18:47:46;;;;;;;11.73;5.90;;;;;;;7.90;54.13;101114.69;10303784;28;20165;-74
2022/03/14 18:52:53;;;;;;;13.40;6.68;;;;;;;7.74;54.47;101121.25;10296670;28;20205;-74
2022/03/14 18:57:54;;;;;;;8.13;3.55;;;;;;;7.52;54.43;101127.97;10285264;28;20502;-75
2022/03/14 19:02:56;;;;;;;10.63;2.53;;;;;;;7.31;54.97;101126.81;10302165;28;20443;-75
2022/03/14 19:07:58;;;;;;;7.65;2.80;;;;;;;7.24;55.30;101112.28;10301715;28;20132;-75
2022/03/14 19:13:00;;;;;;;9.45;3.55;;;;;;;7.15;55.54;101123.78;10302843;28;20143;-75
2022/03/14 19:18:02;;;;;;;6.43;3.35;;;;;;;7.09;56.01;101128.28;10302948;28;20054;-75
2022/03/14 19:23:06;;;;;;;7.55;4.00;;;;;;;7.11;56.05;101136.91;10302353;28;20165;-75
2022/03/14 19:28:08;;;;;;;10.57;3.10;;;;;;;7.03;56.41;101149.25;10306435;28;20132;-75
2022/03/14 19:33:10;;;;;;;10.75;3.60;;;;;;;6.97;56.29;101149.41;10310775;28;20105;-75
2022/03/14 19:38:12;;;;;;;8.07;4.30;;;;;;;6.85;56.66;101158.41;10311242;28;20056;-75
2022/03/14 19:43:15;;;;;;;9.10;4.60;;;;;;;6.64;56.81;101163.25;10309792;28;20081;-75
2022/03/14 19:48:19;;;;;;;12.52;5.15;;;;;;;6.53;57.29;101173.91;10311119;28;20095;-75
2022/03/14 19:53:21;;;;;;;9.63;4.78;;;;;;;6.47;57.28;101176.63;10310055;28;20050;-75
2022/03/14 19:58:24;;;;;;;15.38;7.20;;;;;;;6.34;57.69;101178.69;10291839;28;20054;-75
2022/03/14 20:03:27;;;;;;;9.82;4.50;;;;;;;6.26;57.93;101190.13;10292029;28;20042;-75
2022/03/14 20:08:34;;;;;;;8.90;3.75;;;;;;;6.16;58.20;101191.19;10309612;28;20577;-75
2022/03/14 20:13:37;;;;;;;10.13;3.45;;;;;;;6.10;58.39;101210.34;10307908;28;20050;-75
2022/03/14 20:18:39;;;;;;;9.40;3.50;;;;;;;6.04;58.40;101213.06;10309351;28;20089;-75
2022/03/14 20:23:41;;;;;;;11.30;5.85;;;;;;;6.01;58.54;101214.88;10308185;28;20046;-75
2022/03/14 20:28:43;;;;;;;11.98;6.43;;;;;;;5.75;58.49;101210.22;10309080;28;20061;-75
2022/03/14 20:33:44;;;;;;;10.75;5.43;;;;;;;5.55;59.36;101217.53;10308198;28;20132;-75
2022/03/14 20:38:47;;;;;;;8.88;4.20;;;;;;;5.64;59.17;101209.56;10306726;28;20171;-75
2022/03/14 20:43:48;;;;;;;10.57;5.15;;;;;;;5.60;59.54;101207.06;10307675;28;20145;-75
2022/03/14 20:48:51;;;;;;;12.07;5.22;;;;;;;5.56;59.47;101206.25;10308153;28;20137;-75
2022/03/14 20:53:53;;;;;;;14.00;6.03;;;;;;;5.57;59.42;101210.59;10307430;28;20077;-75
2022/03/14 20:58:54;;;;;;;16.85;7.97;;;;;;;5.50;59.47;101206.38;10307732;28;20058;-75
2022/03/14 21:03:58;;;;;;;14.65;6.55;;;;;;;5.41;59.52;101211.75;10307525;28;20042;-75
2022/03/14 21:09:01;;;;;;;12.25;4.57;;;;;;;5.31;59.74;101213.66;10307710;28;20050;-75
2022/03/14 21:14:02;;;;;;;8.82;3.30;;;;;;;5.26;60.00;101217.22;10307030;28;20061;-75
2022/03/14 21:19:04;;;;;;;22.95;9.85;;;;;;;5.33;59.90;101219.66;10306085;28;20054;-75
2022/03/14 21:24:06;;;;;;;19.35;7.97;;;;;;;5.28;59.78;101231.00;10306506;28;20056;-75
2022/03/14 21:29:07;;;;;;;14.70;6.80;;;;;;;5.11;60.01;101218.31;10289214;28;20821;-75
2022/03/14 21:34:09;;;;;;;9.90;4.18;;;;;;;5.07;60.08;101221.00;10305894;28;20054;-76
2022/03/14 21:39:11;;;;;;;13.20;5.80;;;;;;;5.06;59.90;101224.47;10305904;28;20460;-75
2022/03/14 21:44:13;;;;;;;18.08;8.02;;;;;;;4.74;60.28;101230.16;10305415;28;20480;-75
2022/03/14 21:49:16;;;;;;;14.13;5.60;;;;;;;4.77;60.52;101230.13;10301054;28;20046;-75
2022/03/14 21:54:17;;;;;;;23.38;11.18;;;;;;;4.82;60.35;101222.28;10304740;28;20124;-74
2022/03/14 21:59:19;;;;;;;23.25;9.20;;;;;;;4.50;60.26;101221.03;10287684;28;20279;-74
2022/03/14 22:04:21;;;;;;;15.57;7.32;;;;;;;4.55;60.73;101215.78;10287938;28;21148;-75
2022/03/14 22:09:28;;;;;;;16.40;8.25;;;;;;;4.63;60.61;101216.53;10305217;28;20065;-75
2022/03/14 22:14:31;;;;;;;19.85;8.05;;;;;;;4.68;60.49;101214.72;10303650;28;20051;-75
2022/03/14 22:19:33;;;;;;;10.88;4.70;;;;;;;4.63;60.57;101206.16;10303506;28;20050;-75
2022/03/14 22:24:35;;;;;;;11.82;5.60;;;;;;;4.62;60.39;101215.66;10305010;28;20057;-75
2022/03/14 22:29:37;;;;;;;11.98;6.35;;;;;;;4.57;60.41;101225.25;10287805;28;20062;-75
2022/03/14 22:34:38;;;;;;;8.65;3.80;;;;;;;4.45;60.82;101220.25;10287481;28;20065;-75
2022/03/14 22:39:40;;;;;;;14.38;5.07;;;;;;;4.43;60.83;101209.03;10305136;28;20165;-75
2022/03/14 22:44:42;;;;;;;16.80;7.03;;;;;;;4.53;60.89;101223.59;10304434;28;20060;-75
2022/03/14 22:49:43;;;;;;;11.80;5.68;;;;;;;4.56;60.59;101222.66;10304449;28;20054;-75
2022/03/14 22:54:45;;;;;;;13.43;6.80;;;;;;;4.48;60.68;101220.19;10304536;28;20137;-75
2022/03/14 22:59:47;;;;;;;11.55;5.40;;;;;;;4.44;60.64;101226.31;10303251;28;20240;-75
2022/03/14 23:10:09;;;;;;;9.48;5.13;;;;;;;4.45;60.69;101224.56;10312064;28;20054;-75
2022/03/14 23:15:10;;;;;;;12.98;5.90;;;;;;;4.27;60.44;101228.25;10310211;28;20397;-75